Time;durP1;ratioP1;P1;durP2;ratioP2;P2;SDS_P1;SDS_P2;PMS_P1;PMS_P2;Temp;Humidity;BMP_temperature;BMP_pressure;BME280_temperature;BME280_humidity;BME280_pressure;Samples;Min_cycle;Max_cycle;Signal;HPM_P1;HPM_P2
2022/11/29 00:04:46;;;;;;;6.07;1.63;;;;;;;;;;20999111;28;20091;-60
2022/11/29 00:14:48;;;;;;;8.48;1.45;;;;;;;;;;20999896;28;20059;-60
2022/11/29 00:24:51;;;;;;;9.73;1.73;;;;;;;;;;20997374;28;20083;-60
2022/11/29 00:34:53;;;;;;;6.20;1.20;;;;;;;;;;20996808;28;20053;-61
2022/11/29 00:44:55;;;;;;;4.80;1.70;;;;;;;;;;20996828;28;20056;-60
2022/11/29 00:54:57;;;;;;;4.32;1.17;;;;;;;;;;20996812;28;20083;-61
2022/11/29 01:04:59;;;;;;;6.32;1.40;;;;;;;;;;20996141;28;20064;-60
2022/11/29 01:15:01;;;;;;;4.38;1.15;;;;;;;;;;21016195;28;20400;-60
2022/11/29 01:25:03;;;;;;;5.55;1.05;;;;;;;;;;21023900;28;20048;-61
2022/11/29 01:35:06;;;;;;;7.32;1.15;;;;;;;;;;21023000;28;20052;-61
2022/11/29 01:45:24;;;;;;;6.70;1.13;;;;;;;;;;21023030;28;20447;-61
2022/11/29 01:55:26;;;;;;;5.18;1.25;;;;;;;;;;21021810;28;20052;-60
2022/11/29 02:05:29;;;;;;;7.18;1.33;;;;;;;;;;21021812;28;20086;-59
2022/11/29 02:15:37;;;;;;;3.30;1.48;;;;;;;;;;21021379;28;20040;-60
2022/11/29 02:25:53;;;;;;;8.60;1.50;;;;;;;;;;21010599;28;20052;-60
2022/11/29 02:36:04;;;;;;;5.88;1.52;;;;;;;;;;21006239;28;20056;-60
2022/11/29 02:46:12;;;;;;;6.72;1.60;;;;;;;;;;21005678;28;20056;-59
2022/11/29 02:56:23;;;;;;;7.65;1.58;;;;;;;;;;21005552;28;20086;-61
2022/11/29 03:06:38;;;;;;;6.57;1.58;;;;;;;;;;21004816;28;20472;-60
2022/11/29 03:16:47;;;;;;;5.80;1.38;;;;;;;;;;21004718;28;20074;-61
2022/11/29 03:26:58;;;;;;;7.57;1.88;;;;;;;;;;21003020;28;20044;-60
2022/11/29 03:37:19;;;;;;;5.60;1.60;;;;;;;;;;21001342;28;20049;-59
2022/11/29 03:47:25;;;;;;;5.57;1.90;;;;;;;;;;21001259;28;20045;-60
2022/11/29 03:57:31;;;;;;;8.73;2.00;;;;;;;;;;21000590;28;20052;-60
2022/11/29 04:07:37;;;;;;;11.20;2.95;;;;;;;;;;20999429;28;20473;-60
2022/11/29 04:17:46;;;;;;;9.00;2.13;;;;;;;;;;20998765;28;20048;-61
2022/11/29 04:28:05;;;;;;;6.88;1.80;;;;;;;;;;20999179;28;20135;-61
2022/11/29 04:38:21;;;;;;;6.57;2.30;;;;;;;;;;20997737;28;20052;-61
2022/11/29 04:48:42;;;;;;;6.28;1.90;;;;;;;;;;20996819;28;20457;-61
2022/11/29 04:58:58;;;;;;;7.35;2.25;;;;;;;;;;20997697;28;20048;-61
2022/11/29 05:09:01;;;;;;;7.65;2.42;;;;;;;;;;20996278;28;20053;-59
2022/11/29 05:19:24;;;;;;;8.05;2.25;;;;;;;;;;20995553;28;20128;-61
2022/11/29 05:29:44;;;;;;;7.13;1.80;;;;;;;;;;20994388;28;20056;-61
2022/11/29 05:40:01;;;;;;;198.15;17.63;;;;;;;;;;20995109;28;20053;-60
2022/11/29 05:50:24;;;;;;;9.55;1.95;;;;;;;;;;20994004;28;20049;-61
2022/11/29 06:00:28;;;;;;;12.55;1.73;;;;;;;;;;21001051;28;20102;-63
2022/11/29 06:10:32;;;;;;;2.65;1.08;;;;;;;;;;21008368;28;20106;-61
2022/11/29 06:20:43;;;;;;;3.83;1.23;;;;;;;;;;21008502;28;20048;-61
2022/11/29 06:30:55;;;;;;;4.97;1.30;;;;;;;;;;21007045;28;20203;-61
2022/11/29 06:40:58;;;;;;;7.72;1.95;;;;;;;;;;21006560;28;20126;-61
2022/11/29 06:51:30;;;;;;;5.22;1.20;;;;;;;;;;21006415;28;20129;-61
2022/11/29 07:01:45;;;;;;;7.13;1.08;;;;;;;;;;20913741;28;20553;-61
2022/11/29 07:11:48;;;;;;;7.93;1.48;;;;;;;;;;20912337;28;20052;-62
2022/11/29 07:22:01;;;;;;;5.78;1.35;;;;;;;;;;20911862;28;20390;-61
2022/11/29 07:32:09;;;;;;;6.55;1.95;;;;;;;;;;20937022;28;20063;-61
2022/11/29 07:42:14;;;;;;;10.63;2.30;;;;;;;;;;21001109;28;20048;-60
2022/11/29 07:52:16;;;;;;;6.07;2.20;;;;;;;;;;21000749;28;20396;-61
2022/11/29 08:02:28;;;;;;;14.95;4.70;;;;;;;;;;20999449;28;20105;-61
2022/11/29 08:12:30;;;;;;;11.48;3.30;;;;;;;;;;20998205;28;20060;-61
2022/11/29 08:22:32;;;;;;;12.85;3.22;;;;;;;;;;20997831;28;20484;-62
2022/11/29 08:32:34;;;;;;;11.10;2.97;;;;;;;;;;20997224;28;20105;-61
2022/11/29 08:42:36;;;;;;;9.20;4.15;;;;;;;;;;20996783;28;20090;-61
2022/11/29 09:13:25;;;;;;;11.98;3.88;;;;;;;;;;20995064;28;20048;-61
2022/11/29 09:23:27;;;;;;;19.90;4.63;;;;;;;;;;20995507;28;20123;-61
2022/11/29 09:33:29;;;;;;;11.38;3.47;;;;;;;;;;21002613;28;20095;-60
2022/11/29 09:43:31;;;;;;;13.43;4.13;;;;;;;;;;21011062;28;20408;-61
2022/11/29 09:53:53;;;;;;;16.77;3.42;;;;;;;;;;21010350;28;20052;-60
2022/11/29 10:03:59;;;;;;;10.30;3.25;;;;;;;;;;21008653;28;20132;-63
2022/11/29 10:14:19;;;;;;;8.00;2.17;;;;;;;;;;21008785;28;20049;-68
2022/11/29 10:24:22;;;;;;;18.93;3.77;;;;;;;;;;21006591;28;20420;-69
2022/11/29 10:34:25;;;;;;;13.38;3.67;;;;;;;;;;20952407;28;20072;-65
2022/11/29 10:44:28;;;;;;;12.35;2.85;;;;;;;;;;20923661;28;20057;-63
2022/11/29 10:54:43;;;;;;;9.77;2.45;;;;;;;;;;20926820;28;20103;-71
2022/11/29 11:04:47;;;;;;;10.93;2.30;;;;;;;;;;20924895;28;20049;-59
2022/11/29 11:14:50;;;;;;;8.40;2.22;;;;;;;;;;20921336;28;20063;-61
2022/11/29 11:25:01;;;;;;;10.57;3.10;;;;;;;;;;20920986;28;20053;-62
2022/11/29 11:35:20;;;;;;;8.43;3.07;;;;;;;;;;20918264;28;20076;-63
2022/11/29 11:45:22;;;;;;;6.53;2.50;;;;;;;;;;20919408;28;20466;-59
2022/11/29 11:55:32;;;;;;;6.35;2.72;;;;;;;;;;20918534;28;20049;-61
2022/11/29 12:05:34;;;;;;;5.97;2.20;;;;;;;;;;20917035;28;20135;-65
2022/11/29 12:15:39;;;;;;;7.00;2.35;;;;;;;;;;20915712;28;20080;-68
2022/11/29 12:25:57;;;;;;;9.57;2.53;;;;;;;;;;20920544;28;20109;-73
2022/11/29 12:36:32;;;;;;;6.00;2.25;;;;;;;;;;20979672;28;20150;-70
2022/11/29 12:46:36;;;;;;;6.93;2.70;;;;;;;;;;20660772;28;20054;-63
2022/11/29 12:56:41;;;;;;;8.77;2.40;;;;;;;;;;20660485;28;20054;-62
2022/11/29 13:06:43;;;;;;;11.73;2.75;;;;;;;;;;20659299;28;20050;-62
2022/11/29 13:16:46;;;;;;;10.32;2.00;;;;;;;;;;20775842;28;20044;-63
2022/11/29 13:26:49;;;;;;;7.55;2.03;;;;;;;;;;20994592;28;20087;-61
2022/11/29 13:37:00;;;;;;;5.70;1.48;;;;;;;;;;20994360;28;20405;-61
2022/11/29 13:47:06;;;;;;;4.30;1.65;;;;;;;;;;20994547;28;20052;-62
2022/11/29 13:57:10;;;;;;;8.07;1.50;;;;;;;;;;20993841;28;20080;-61
2022/11/29 14:07:17;;;;;;;5.80;1.75;;;;;;;;;;20994057;28;20494;-60
2022/11/29 14:17:32;;;;;;;10.52;1.52;;;;;;;;;;20997892;28;20045;-62
2022/11/29 14:27:35;;;;;;;7.80;1.63;;;;;;;;;;21006959;28;20095;-62
2022/11/29 14:37:43;;;;;;;7.05;1.70;;;;;;;;;;21006277;28;20049;-61
2022/11/29 14:47:49;;;;;;;6.15;2.05;;;;;;;;;;21005130;28;20048;-62
2022/11/29 14:57:51;;;;;;;6.50;1.70;;;;;;;;;;21005305;28;20047;-62
2022/11/29 15:08:14;;;;;;;5.25;1.65;;;;;;;;;;21004553;28;20102;-62
2022/11/29 15:18:17;;;;;;;3.75;1.40;;;;;;;;;;20995046;28;20186;-66
2022/11/29 15:28:21;;;;;;;5.22;1.55;;;;;;;;;;21001283;28;20056;-63
2022/11/29 15:38:23;;;;;;;4.95;1.48;;;;;;;;;;21065467;28;20056;-68
2022/11/29 15:48:27;;;;;;;5.90;2.63;;;;;;;;;;21085283;28;20052;-64
2022/11/29 15:58:30;;;;;;;5.63;1.80;;;;;;;;;;21083930;28;20098;-65
2022/11/29 16:08:34;;;;;;;12.07;3.15;;;;;;;;;;21084057;28;20044;-64
2022/11/29 16:18:39;;;;;;;5.55;2.42;;;;;;;;;;21083753;28;20044;-65
2022/11/29 16:28:46;;;;;;;7.35;1.65;;;;;;;;;;21081539;28;20068;-64
2022/11/29 16:38:49;;;;;;;7.53;2.70;;;;;;;;;;21080548;28;20075;-65
2022/11/29 16:48:52;;;;;;;9.85;3.15;;;;;;;;;;21062283;28;20047;-65
2022/11/29 16:58:56;;;;;;;12.80;2.72;;;;;;;;;;21080413;28;20040;-65
2022/11/29 17:08:58;;;;;;;6.15;2.60;;;;;;;;;;21079500;28;20052;-64
2022/11/29 17:19:01;;;;;;;13.75;3.95;;;;;;;;;;21078484;28;20051;-65
2022/11/29 17:29:03;;;;;;;10.10;3.50;;;;;;;;;;21078176;28;20063;-64
2022/11/29 17:39:06;;;;;;;13.13;3.75;;;;;;;;;;21077491;28;20044;-66
2022/11/29 17:49:09;;;;;;;10.25;3.13;;;;;;;;;;21077044;28;20056;-65
2022/11/29 17:59:11;;;;;;;13.85;7.47;;;;;;;;;;21092852;28;20066;-65
2022/11/29 18:09:14;;;;;;;15.52;5.15;;;;;;;;;;21092768;28;20531;-66
2022/11/29 18:19:17;;;;;;;16.77;6.47;;;;;;;;;;21092598;28;20472;-65
2022/11/29 18:29:21;;;;;;;16.60;5.68;;;;;;;;;;21091944;28;20454;-66
2022/11/29 18:39:24;;;;;;;34.83;14.88;;;;;;;;;;21091938;28;20412;-65
2022/11/29 18:49:26;;;;;;;29.52;13.20;;;;;;;;;;21088968;28;20056;-65
2022/11/29 18:59:28;;;;;;;23.67;7.85;;;;;;;;;;21070457;28;20055;-64
2022/11/29 19:09:31;;;;;;;35.42;13.65;;;;;;;;;;21088036;28;20051;-64
2022/11/29 19:19:32;;;;;;;12.45;4.75;;;;;;;;;;21087190;28;20047;-65
2022/11/29 19:29:34;;;;;;;11.38;4.30;;;;;;;;;;21086090;28;20048;-65
2022/11/29 19:39:37;;;;;;;12.55;3.28;;;;;;;;;;21086867;28;20458;-67
2022/11/29 19:49:40;;;;;;;21.88;7.45;;;;;;;;;;21085070;28;20052;-68
2022/11/29 19:59:41;;;;;;;12.25;4.18;;;;;;;;;;21085147;28;20471;-68
2022/11/29 20:09:43;;;;;;;12.43;5.15;;;;;;;;;;21084662;28;20131;-67
2022/11/29 20:19:45;;;;;;;17.83;6.25;;;;;;;;;;21083136;28;20067;-65
2022/11/29 20:29:48;;;;;;;19.55;7.03;;;;;;;;;;21081514;28;20051;-67
2022/11/29 20:39:53;;;;;;;14.30;5.57;;;;;;;;;;21082766;28;20056;-64
2022/11/29 20:49:56;;;;;;;17.52;6.05;;;;;;;;;;21081734;28;20080;-66
2022/11/29 20:59:58;;;;;;;15.50;6.90;;;;;;;;;;21080974;28;20048;-64
2022/11/29 21:10:01;;;;;;;13.75;5.70;;;;;;;;;;21079469;28;20048;-67
2022/11/29 21:20:03;;;;;;;20.80;7.75;;;;;;;;;;21078822;28;20135;-66
2022/11/29 21:30:12;;;;;;;13.43;4.65;;;;;;;;;;21088118;28;20411;-68
2022/11/29 21:40:16;;;;;;;10.20;3.40;;;;;;;;;;21096016;28;20051;-67
2022/11/29 21:50:17;;;;;;;9.02;4.07;;;;;;;;;;21094163;28;20289;-67
2022/11/29 22:00:18;;;;;;;11.98;3.88;;;;;;;;;;21093616;28;20044;-68
2022/11/29 22:10:19;;;;;;;13.45;3.50;;;;;;;;;;21092097;28;20044;-68
2022/11/29 22:20:21;;;;;;;9.95;3.95;;;;;;;;;;21091412;28;20060;-68
2022/11/29 22:30:22;;;;;;;8.95;3.63;;;;;;;;;;21090929;28;20087;-68
2022/11/29 22:40:23;;;;;;;11.35;3.45;;;;;;;;;;21089120;28;20051;-68
2022/11/29 22:50:24;;;;;;;7.68;3.83;;;;;;;;;;21089522;28;20051;-67
2022/11/29 23:00:25;;;;;;;8.48;3.40;;;;;;;;;;21088528;28;20047;-66
2022/11/29 23:10:27;;;;;;;8.00;3.72;;;;;;;;;;21089163;28;20048;-67
2022/11/29 23:20:28;;;;;;;11.98;4.40;;;;;;;;;;21088338;28;20101;-67
2022/11/29 23:30:29;;;;;;;9.27;4.97;;;;;;;;;;21086934;28;20056;-67
2022/11/29 23:40:30;;;;;;;11.00;5.30;;;;;;;;;;21086527;28;20055;-66
2022/11/29 23:50:31;;;;;;;21.52;8.00;;;;;;;;;;21084462;28;20089;-66
